Terminal Aerodrome Forecast
Issued by NWS Lake Charles, LA

Home | Current Version | Previous Version | Text Only | Print | Product List | Glossary On
Versions: 1 2 3 4 5 6 7 8 9 10 11 12 13 14 15 16 17 18
000
FTUS44 KLCH 290059 AAA
TAFAEX
TAF AMD
KAEX 290059Z 2901/2924 13011KT P6SM VCSH SCT040 BKN080
     FM290600 12005KT P6SM BKN012
     FM291200 14011KT 3SM BR OVC009
     FM291500 15013KT P6SM BKN015
     FM291800 17016G24KT P6SM SCT025 BKN050=

USA.gov is the U.S. government's official web portal to all federal, state and local government web resources and services.